Marsland, Nebraska
Current Conditions -  °F | °C
As of 2:53 AM on Thursday 29 Jan 2015 (Local Time) from KCDR Reporting Station
Broken Clouds Broken Clouds  
Wind Chill: 25°   Ceiling: 2100
Heat Index: 25°   Visibility: 7mi
Dew Point: 22°   Wind: 3mph
Humidity: 88%   Direction: 240°WSW
Pressure: 30.42"   Gusts: NA
Location:  42.44°N, 103.3°W
Report Text: KCDR 290953Z AUTO 24003KT 7SM BKN021 M04/M06 A3042 RMK AO2 SLP327 I1000 T10391056
Loading
Personal Weather Stations






























Interactive Weather Map New forecast layout! Learn more

10-Day Weather Forecast

Advertisements
Track Severe Weather on mobile